Time;durP1;ratioP1;P1;durP2;ratioP2;P2;SDS_P1;SDS_P2;PMS_P1;PMS_P2;Temp;Humidity;BMP_temperature;BMP_pressure;BME280_temperature;BME280_humidity;BME280_pressure;Samples;Min_cycle;Max_cycle;Signal;HPM_P1;HPM_P2
2023/07/21 00:01:43;;;;;;;;;;;16.90;99.90;;;;;;5142309;27;20335;-62
2023/07/21 00:04:08;;;;;;;;;;;16.80;99.90;;;;;;5142243;27;20286;-62
2023/07/21 00:06:34;;;;;;;;;;;16.80;99.90;;;;;;5142368;27;19918;-62
2023/07/21 00:08:59;;;;;;;;;;;16.80;99.90;;;;;;5142109;27;19915;-61
2023/07/21 00:11:25;;;;;;;;;;;16.70;99.90;;;;;;5142342;27;19912;-62
2023/07/21 00:13:51;;;;;;;;;;;16.70;99.90;;;;;;5142135;27;19907;-61
2023/07/21 00:16:18;;;;;;;;;;;16.60;99.90;;;;;;5142115;27;19908;-62
2023/07/21 00:18:46;;;;;;;;;;;16.60;99.90;;;;;;5142074;27;19970;-62
2023/07/21 00:21:11;;;;;;;;;;;16.60;99.90;;;;;;5141867;27;20385;-62
2023/07/21 00:23:37;;;;;;;;;;;16.50;99.90;;;;;;5142347;27;19989;-62
2023/07/21 00:26:03;;;;;;;;;;;16.40;99.90;;;;;;5141917;27;19912;-62
2023/07/21 00:28:28;;;;;;;;;;;16.40;99.90;;;;;;5141822;27;19932;-62
2023/07/21 00:30:54;;;;;;;;;;;16.30;99.90;;;;;;5141996;27;19908;-62
2023/07/21 00:33:22;;;;;;;;;;;16.30;99.90;;;;;;5141726;27;19908;-61
2023/07/21 00:35:48;;;;;;;;;;;16.20;99.90;;;;;;5142087;27;19912;-62
2023/07/21 00:38:13;;;;;;;;;;;16.10;99.90;;;;;;5141521;27;19911;-61
2023/07/21 00:40:39;;;;;;;;;;;16.10;99.90;;;;;;5142020;27;19914;-62
2023/07/21 00:43:05;;;;;;;;;;;16.00;99.90;;;;;;5141528;27;19907;-61
2023/07/21 00:45:33;;;;;;;;;;;15.90;99.90;;;;;;5141176;27;19912;-62
2023/07/21 00:48:00;;;;;;;;;;;15.90;99.90;;;;;;5141870;27;19908;-62
2023/07/21 00:50:26;;;;;;;;;;;15.80;99.90;;;;;;5141515;27;19968;-62
2023/07/21 00:52:51;;;;;;;;;;;15.80;99.90;;;;;;5141788;27;20322;-61
2023/07/21 00:55:18;;;;;;;;;;;15.80;99.90;;;;;;5141576;27;19995;-62
2023/07/21 00:57:44;;;;;;;;;;;15.70;99.90;;;;;;5141247;27;19907;-62
2023/07/21 01:00:12;;;;;;;;;;;15.70;99.90;;;;;;5141165;27;19956;-62
2023/07/21 01:02:38;;;;;;;;;;;15.60;99.90;;;;;;5141038;27;20259;-62
2023/07/21 01:05:04;;;;;;;;;;;15.60;99.90;;;;;;5141189;27;19952;-62
2023/07/21 01:07:30;;;;;;;;;;;15.50;99.90;;;;;;5140952;27;19908;-62
2023/07/21 01:09:56;;;;;;;;;;;15.40;99.90;;;;;;5141329;27;20431;-62
2023/07/21 01:12:21;;;;;;;;;;;15.40;99.90;;;;;;5141199;27;19908;-61
2023/07/21 01:14:47;;;;;;;;;;;15.40;99.90;;;;;;5140790;27;19954;-61
2023/07/21 01:17:14;;;;;;;;;;;15.40;99.90;;;;;;5140875;27;19912;-62
2023/07/21 01:19:41;;;;;;;;;;;15.30;99.90;;;;;;5140625;27;19924;-62
2023/07/21 01:22:11;;;;;;;;;;;15.30;99.90;;;;;;5140932;27;19918;-62
2023/07/21 01:24:48;;;;;;;;;;;15.30;99.90;;;;;;5141157;27;19954;-62
2023/07/21 01:27:15;;;;;;;;;;;15.20;99.90;;;;;;5122519;27;19919;-61
2023/07/21 01:29:43;;;;;;;;;;;15.20;99.90;;;;;;5140631;27;19908;-62
2023/07/21 01:32:10;;;;;;;;;;;15.10;99.90;;;;;;5140441;27;19908;-61
2023/07/21 01:34:36;;;;;;;;;;;15.10;99.90;;;;;;5140506;27;19908;-62
2023/07/21 01:37:03;;;;;;;;;;;15.00;99.90;;;;;;5140484;27;20299;-62
2023/07/21 01:39:30;;;;;;;;;;;15.00;99.90;;;;;;5123188;27;19919;-62
2023/07/21 01:41:55;;;;;;;;;;;15.00;99.90;;;;;;5119839;28;19933;-62
2023/07/21 01:44:22;;;;;;;;;;;15.00;99.90;;;;;;5120055;28;20410;-62
2023/07/21 01:46:48;;;;;;;;;;;15.00;99.90;;;;;;5119507;28;19923;-62
2023/07/21 01:49:15;;;;;;;;;;;14.90;99.90;;;;;;5119935;28;19908;-62
2023/07/21 01:51:41;;;;;;;;;;;14.90;99.90;;;;;;5119742;28;19914;-62
2023/07/21 01:54:11;;;;;;;;;;;14.90;99.90;;;;;;5119767;28;19907;-62
2023/07/21 01:56:42;;;;;;;;;;;14.80;99.90;;;;;;5119464;28;19908;-62
2023/07/21 01:59:10;;;;;;;;;;;14.80;99.90;;;;;;5119373;28;19975;-62
2023/07/21 02:01:36;;;;;;;;;;;14.80;99.90;;;;;;5119568;28;19915;-62
2023/07/21 02:04:03;;;;;;;;;;;14.70;99.90;;;;;;5119244;28;20403;-62
2023/07/21 02:06:29;;;;;;;;;;;14.70;99.90;;;;;;5100969;28;20462;-62
2023/07/21 02:08:54;;;;;;;;;;;14.70;99.90;;;;;;5134601;27;19930;-62
2023/07/21 02:11:20;;;;;;;;;;;14.60;99.90;;;;;;5139234;27;19908;-62
2023/07/21 02:13:46;;;;;;;;;;;14.60;99.90;;;;;;5139642;27;20293;-62
2023/07/21 02:16:12;;;;;;;;;;;14.50;99.90;;;;;;5140001;27;19912;-62
2023/07/21 02:18:38;;;;;;;;;;;14.50;99.90;;;;;;5139385;27;19919;-61
2023/07/21 02:21:04;;;;;;;;;;;14.50;99.90;;;;;;5139826;27;19929;-62
2023/07/21 02:23:31;;;;;;;;;;;14.50;99.90;;;;;;5139417;27;19908;-61
2023/07/21 02:25:57;;;;;;;;;;;14.40;99.90;;;;;;5139195;27;20271;-62
2023/07/21 02:28:23;;;;;;;;;;;14.40;99.90;;;;;;5139676;27;19954;-61
2023/07/21 02:31:03;;;;;;;;;;;14.40;99.90;;;;;;5132656;27;19964;-61
2023/07/21 02:33:29;;;;;;;;;;;14.30;99.90;;;;;;5132018;27;19999;-62
2023/07/21 02:35:55;;;;;;;;;;;14.30;99.90;;;;;;5129023;27;19907;-62
2023/07/21 02:38:21;;;;;;;;;;;14.30;99.90;;;;;;5124380;27;19908;-62
2023/07/21 02:40:46;;;;;;;;;;;14.20;99.90;;;;;;5136346;27;19961;-62
2023/07/21 02:43:12;;;;;;;;;;;14.20;99.90;;;;;;5139251;27;19946;-62
2023/07/21 02:45:38;;;;;;;;;;;14.20;99.90;;;;;;5138811;27;19963;-62
2023/07/21 02:48:07;;;;;;;;;;;14.10;99.90;;;;;;5138990;27;19907;-62
2023/07/21 02:50:33;;;;;;;;;;;14.10;99.90;;;;;;5138796;27;19907;-62
2023/07/21 02:52:58;;;;;;;;;;;14.10;99.90;;;;;;5139039;27;19907;-62
2023/07/21 02:55:24;;;;;;;;;;;14.10;99.90;;;;;;5139466;27;19915;-62
2023/07/21 02:57:50;;;;;;;;;;;14.00;99.90;;;;;;5139039;27;19921;-62
2023/07/21 03:00:15;;;;;;;;;;;14.00;99.90;;;;;;5139449;27;20362;-62
2023/07/21 03:02:42;;;;;;;;;;;14.00;99.90;;;;;;5138916;27;19907;-61
2023/07/21 03:05:08;;;;;;;;;;;13.90;99.90;;;;;;5138990;27;19968;-61
2023/07/21 03:07:34;;;;;;;;;;;13.90;99.90;;;;;;5138760;28;19911;-62
2023/07/21 03:10:00;;;;;;;;;;;13.90;99.90;;;;;;5139252;28;20010;-62
2023/07/21 03:12:25;;;;;;;;;;;13.90;99.90;;;;;;5138571;28;19965;-62
2023/07/21 03:14:51;;;;;;;;;;;13.80;99.90;;;;;;5138605;28;19907;-62
2023/07/21 03:17:17;;;;;;;;;;;13.80;99.90;;;;;;5138510;28;20277;-61
2023/07/21 03:19:42;;;;;;;;;;;13.80;99.90;;;;;;5138571;28;19947;-61
2023/07/21 03:22:08;;;;;;;;;;;13.80;99.90;;;;;;5137735;28;20272;-61
2023/07/21 03:24:34;;;;;;;;;;;13.80;99.90;;;;;;5140675;27;19907;-62
2023/07/21 03:27:00;;;;;;;;;;;13.80;99.90;;;;;;5142758;27;20278;-61
2023/07/21 03:29:26;;;;;;;;;;;13.70;99.90;;;;;;5142885;27;19907;-61
2023/07/21 03:31:51;;;;;;;;;;;13.70;99.90;;;;;;5142547;27;19907;-62
2023/07/21 03:34:17;;;;;;;;;;;13.70;99.90;;;;;;5142945;27;19911;-62
2023/07/21 03:36:42;;;;;;;;;;;13.60;99.90;;;;;;5142826;27;20372;-62
2023/07/21 03:39:08;;;;;;;;;;;13.70;99.90;;;;;;5142898;27;20373;-62
2023/07/21 03:41:34;;;;;;;;;;;13.60;99.90;;;;;;5143038;27;19908;-61
2023/07/21 03:44:00;;;;;;;;;;;13.60;99.90;;;;;;5142900;27;19908;-61
2023/07/21 03:46:25;;;;;;;;;;;13.60;99.90;;;;;;5142533;27;20281;-62
2023/07/21 03:48:51;;;;;;;;;;;13.60;99.90;;;;;;5142462;27;19979;-61
2023/07/21 03:51:16;;;;;;;;;;;13.60;99.90;;;;;;5142526;27;19907;-62
2023/07/21 03:53:42;;;;;;;;;;;13.50;99.90;;;;;;5142632;27;19953;-62
2023/07/21 03:56:07;;;;;;;;;;;13.50;99.90;;;;;;5142710;27;19914;-62
2023/07/21 03:58:33;;;;;;;;;;;13.50;99.90;;;;;;5142335;27;19996;-62
2023/07/21 04:00:59;;;;;;;;;;;13.50;99.90;;;;;;5142600;27;19914;-62
2023/07/21 04:03:25;;;;;;;;;;;13.50;99.90;;;;;;5142423;27;19907;-62
2023/07/21 04:05:53;;;;;;;;;;;13.50;99.90;;;;;;5142174;27;19919;-62
2023/07/21 04:08:19;;;;;;;;;;;13.50;99.90;;;;;;5142754;27;20274;-62
2023/07/21 04:10:45;;;;;;;;;;;13.50;99.90;;;;;;5142172;27;19908;-62
2023/07/21 04:13:11;;;;;;;;;;;13.50;99.90;;;;;;5142018;27;19915;-62
2023/07/21 04:15:37;;;;;;;;;;;13.40;99.90;;;;;;5142036;27;19907;-62
2023/07/21 04:18:03;;;;;;;;;;;13.40;99.90;;;;;;5141619;27;19907;-62
2023/07/21 04:20:29;;;;;;;;;;;13.30;99.90;;;;;;5140641;28;19911;-62
2023/07/21 04:22:55;;;;;;;;;;;13.30;99.90;;;;;;5137704;28;19963;-62
2023/07/21 04:25:20;;;;;;;;;;;13.40;99.90;;;;;;5140721;28;19911;-62
2023/07/21 04:27:48;;;;;;;;;;;13.40;99.90;;;;;;5139195;28;19934;-62
2023/07/21 04:30:14;;;;;;;;;;;13.40;99.90;;;;;;5135772;28;19990;-61
2023/07/21 04:32:39;;;;;;;;;;;13.40;99.90;;;;;;5128500;28;19946;-61
2023/07/21 04:35:08;;;;;;;;;;;13.30;99.90;;;;;;5132004;27;19994;-62
2023/07/21 04:37:34;;;;;;;;;;;13.30;99.90;;;;;;5140150;28;20278;-62
2023/07/21 04:39:59;;;;;;;;;;;13.30;99.90;;;;;;5140445;28;19907;-62
2023/07/21 04:42:29;;;;;;;;;;;13.40;99.90;;;;;;5140248;28;19943;-62
2023/07/21 04:44:54;;;;;;;;;;;13.30;99.90;;;;;;5140047;28;19990;-62
2023/07/21 04:47:22;;;;;;;;;;;13.30;99.90;;;;;;5140475;28;19951;-62
2023/07/21 04:49:48;;;;;;;;;;;13.30;99.90;;;;;;5140391;28;19911;-61
2023/07/21 04:52:14;;;;;;;;;;;13.30;99.90;;;;;;5140190;28;19907;-62
2023/07/21 04:54:39;;;;;;;;;;;13.20;99.90;;;;;;5140283;28;20399;-62
2023/07/21 04:57:05;;;;;;;;;;;13.20;99.90;;;;;;5140285;28;20048;-62
2023/07/21 04:59:31;;;;;;;;;;;13.20;99.90;;;;;;5140003;28;20285;-62
2023/07/21 05:01:57;;;;;;;;;;;13.20;99.90;;;;;;5139729;28;19907;-61
2023/07/21 05:04:22;;;;;;;;;;;13.20;99.90;;;;;;5139981;28;19907;-61
2023/07/21 05:06:49;;;;;;;;;;;13.20;99.90;;;;;;5139910;28;19979;-61
2023/07/21 05:09:14;;;;;;;;;;;13.20;99.90;;;;;;5139774;28;19915;-62
2023/07/21 05:11:40;;;;;;;;;;;13.20;99.90;;;;;;5140012;28;19908;-61
2023/07/21 05:14:06;;;;;;;;;;;13.30;99.90;;;;;;5139868;28;20002;-61
2023/07/21 05:16:32;;;;;;;;;;;13.20;99.90;;;;;;5140139;28;19914;-61
2023/07/21 05:18:58;;;;;;;;;;;13.30;99.90;;;;;;5063766;27;2127522;-62
2023/07/21 05:21:23;;;;;;;;;;;13.30;99.90;;;;;;5140932;27;19926;-62
2023/07/21 05:23:49;;;;;;;;;;;13.30;99.90;;;;;;5120941;27;19912;-62
2023/07/21 05:26:15;;;;;;;;;;;13.40;99.90;;;;;;5120197;28;19920;-61
2023/07/21 05:28:41;;;;;;;;;;;13.40;99.90;;;;;;5119933;28;19908;-62
2023/07/21 05:31:11;;;;;;;;;;;13.40;99.90;;;;;;5119915;28;19914;-61
2023/07/21 05:33:36;;;;;;;;;;;13.50;99.90;;;;;;5120065;28;19912;-61
2023/07/21 05:36:05;;;;;;;;;;;13.50;99.90;;;;;;5128210;27;19927;-62
2023/07/21 05:38:32;;;;;;;;;;;13.60;99.90;;;;;;5139974;27;19911;-61
2023/07/21 05:40:58;;;;;;;;;;;13.60;99.90;;;;;;5140747;27;20003;-62
2023/07/21 05:43:23;;;;;;;;;;;13.60;99.90;;;;;;5140395;27;19943;-62
2023/07/21 05:45:50;;;;;;;;;;;13.60;99.90;;;;;;5140361;27;20010;-62
2023/07/21 05:48:15;;;;;;;;;;;13.70;99.90;;;;;;5139655;27;19907;-62
2023/07/21 05:50:41;;;;;;;;;;;13.70;99.90;;;;;;5140329;27;20040;-61
2023/07/21 05:53:07;;;;;;;;;;;13.80;99.90;;;;;;5140285;27;20044;-61
2023/07/21 05:55:32;;;;;;;;;;;13.80;99.90;;;;;;5140018;27;19957;-61
2023/07/21 05:57:58;;;;;;;;;;;13.90;99.90;;;;;;5139765;27;19943;-62
2023/07/21 06:00:25;;;;;;;;;;;13.90;99.90;;;;;;5121484;27;19915;-62
2023/07/21 06:02:51;;;;;;;;;;;14.00;99.90;;;;;;5140537;27;19914;-62
2023/07/21 06:05:16;;;;;;;;;;;14.00;99.90;;;;;;5140144;27;20286;-62
2023/07/21 06:07:44;;;;;;;;;;;14.10;99.90;;;;;;5127250;27;19912;-61
2023/07/21 06:10:10;;;;;;;;;;;14.10;99.90;;;;;;5130175;27;20389;-61
2023/07/21 06:12:37;;;;;;;;;;;14.20;99.90;;;;;;5139763;27;20455;-61
2023/07/21 06:15:04;;;;;;;;;;;14.20;99.90;;;;;;5139455;27;20386;-62
2023/07/21 06:17:29;;;;;;;;;;;14.20;99.90;;;;;;5139503;27;19912;-62
2023/07/21 06:19:56;;;;;;;;;;;14.30;99.90;;;;;;5137559;27;19926;-62
2023/07/21 06:22:22;;;;;;;;;;;14.30;99.90;;;;;;5139505;27;19918;-62
2023/07/21 06:24:48;;;;;;;;;;;14.40;99.90;;;;;;5132175;27;20003;-62
2023/07/21 06:27:13;;;;;;;;;;;14.40;99.90;;;;;;5121487;27;19955;-62
2023/07/21 06:29:39;;;;;;;;;;;14.50;99.90;;;;;;5123428;27;19908;-62
2023/07/21 06:32:05;;;;;;;;;;;14.50;99.90;;;;;;5115217;28;19908;-62
2023/07/21 06:34:31;;;;;;;;;;;14.60;99.90;;;;;;5122760;27;19923;-62
2023/07/21 06:36:57;;;;;;;;;;;14.60;99.90;;;;;;5139075;27;19911;-62
2023/07/21 06:39:23;;;;;;;;;;;14.60;99.90;;;;;;5136040;27;19922;-62
2023/07/21 06:41:49;;;;;;;;;;;14.70;99.90;;;;;;5100414;28;19907;-62
2023/07/21 06:44:15;;;;;;;;;;;14.70;99.90;;;;;;5118325;27;19994;-62
2023/07/21 06:46:44;;;;;;;;;;;14.80;99.90;;;;;;5121576;27;19959;-62
2023/07/21 06:49:10;;;;;;;;;;;14.90;99.90;;;;;;5132350;27;19907;-62
2023/07/21 06:51:36;;;;;;;;;;;14.90;99.90;;;;;;5128845;27;19915;-62
2023/07/21 06:54:08;;;;;;;;;;;14.90;99.90;;;;;;5122557;27;19915;-62
2023/07/21 06:56:34;;;;;;;;;;;15.00;99.90;;;;;;5138867;27;19921;-62
2023/07/21 06:58:59;;;;;;;;;;;15.10;99.90;;;;;;5138880;27;20267;-62
2023/07/21 07:01:25;;;;;;;;;;;15.10;99.90;;;;;;5130767;27;20048;-62
2023/07/21 07:03:51;;;;;;;;;;;15.20;99.90;;;;;;5123491;28;19912;-62
2023/07/21 07:06:17;;;;;;;;;;;15.30;99.90;;;;;;5130957;27;20382;-62
2023/07/21 07:08:43;;;;;;;;;;;15.30;99.90;;;;;;5137794;27;19967;-62
2023/07/21 07:11:09;;;;;;;;;;;15.40;99.90;;;;;;5138989;28;20346;-62
2023/07/21 07:13:34;;;;;;;;;;;15.40;99.90;;;;;;5138751;28;20594;-62
2023/07/21 07:16:00;;;;;;;;;;;15.50;99.90;;;;;;5137912;28;19908;-62
2023/07/21 07:18:26;;;;;;;;;;;15.50;99.90;;;;;;5132581;28;19920;-62
2023/07/21 07:20:53;;;;;;;;;;;15.60;99.90;;;;;;5118701;28;19915;-62
2023/07/21 07:23:19;;;;;;;;;;;15.70;99.90;;;;;;5134189;28;19908;-62
2023/07/21 07:25:49;;;;;;;;;;;15.70;99.90;;;;;;5137506;28;19918;-61
2023/07/21 07:28:15;;;;;;;;;;;15.80;99.90;;;;;;5131367;28;19914;-62
2023/07/21 07:30:41;;;;;;;;;;;15.80;99.90;;;;;;5117745;28;19915;-61
2023/07/21 07:33:07;;;;;;;;;;;15.90;99.90;;;;;;5117705;28;19912;-62
2023/07/21 07:35:32;;;;;;;;;;;15.90;99.90;;;;;;5132636;28;20289;-62
2023/07/21 07:37:59;;;;;;;;;;;16.00;99.90;;;;;;5126693;28;20354;-62
2023/07/21 07:40:25;;;;;;;;;;;16.10;99.90;;;;;;5123448;28;19934;-62
2023/07/21 07:42:50;;;;;;;;;;;16.10;99.90;;;;;;5118370;28;19915;-62
2023/07/21 07:45:16;;;;;;;;;;;16.30;99.90;;;;;;5135201;28;19944;-62
2023/07/21 07:47:44;;;;;;;;;;;16.30;99.90;;;;;;5135129;28;19912;-61
2023/07/21 07:50:13;;;;;;;;;;;16.40;99.90;;;;;;5128404;28;19907;-62
2023/07/21 07:52:42;;;;;;;;;;;16.50;99.90;;;;;;5133662;28;19914;-62
2023/07/21 07:55:07;;;;;;;;;;;16.50;99.90;;;;;;5138182;28;19914;-61
2023/07/21 07:57:34;;;;;;;;;;;16.60;99.90;;;;;;5131193;28;19916;-62
2023/07/21 07:59:59;;;;;;;;;;;16.60;99.90;;;;;;5133471;28;19907;-62
2023/07/21 08:02:25;;;;;;;;;;;16.70;99.90;;;;;;5138025;28;19915;-62
2023/07/21 08:04:51;;;;;;;;;;;16.80;99.90;;;;;;5138422;28;19907;-62
2023/07/21 08:07:18;;;;;;;;;;;16.80;99.90;;;;;;5137862;28;19922;-62
2023/07/21 08:09:43;;;;;;;;;;;16.90;99.90;;;;;;5137229;27;20485;-62
2023/07/21 08:12:09;;;;;;;;;;;16.90;99.90;;;;;;5140397;27;19908;-62
2023/07/21 08:14:35;;;;;;;;;;;17.00;99.90;;;;;;5141142;27;20283;-62
2023/07/21 08:17:01;;;;;;;;;;;17.00;99.90;;;;;;5141367;27;19954;-62
2023/07/21 08:19:27;;;;;;;;;;;17.00;99.90;;;;;;5140730;27;19975;-62
2023/07/21 08:21:52;;;;;;;;;;;17.00;99.90;;;;;;5140307;27;20440;-62
2023/07/21 08:24:18;;;;;;;;;;;17.00;99.90;;;;;;5141815;27;19974;-62
2023/07/21 08:26:44;;;;;;;;;;;17.00;99.90;;;;;;5141853;27;19919;-61
2023/07/21 08:29:09;;;;;;;;;;;17.00;99.90;;;;;;5141471;27;19908;-62
2023/07/21 08:31:35;;;;;;;;;;;17.00;99.90;;;;;;5141655;27;19997;-62
2023/07/21 08:34:01;;;;;;;;;;;17.10;99.90;;;;;;5142314;27;19908;-62
2023/07/21 08:36:26;;;;;;;;;;;17.10;99.90;;;;;;5141661;27;20289;-62
2023/07/21 08:38:52;;;;;;;;;;;17.20;99.90;;;;;;5142070;27;19908;-62
2023/07/21 08:41:19;;;;;;;;;;;17.20;99.90;;;;;;5141530;27;19907;-62
2023/07/21 08:43:46;;;;;;;;;;;17.30;99.90;;;;;;5141364;27;20316;-62
2023/07/21 08:46:11;;;;;;;;;;;17.40;99.90;;;;;;5141437;27;19915;-62
2023/07/21 08:48:38;;;;;;;;;;;17.50;99.90;;;;;;5139999;27;19974;-62
2023/07/21 08:51:04;;;;;;;;;;;17.60;99.90;;;;;;5141346;27;20452;-62
2023/07/21 08:53:30;;;;;;;;;;;17.70;99.90;;;;;;5141398;27;19978;-62
2023/07/21 08:55:58;;;;;;;;;;;17.80;99.90;;;;;;5141496;27;19994;-62
2023/07/21 08:58:24;;;;;;;;;;;17.70;99.90;;;;;;5141344;27;19994;-62
2023/07/21 09:00:51;;;;;;;;;;;17.70;99.90;;;;;;5141427;27;19981;-62
2023/07/21 09:03:25;;;;;;;;;;;17.70;99.90;;;;;;5141335;27;19920;-62
2023/07/21 09:05:51;;;;;;;;;;;17.70;99.90;;;;;;5140984;27;20014;-62
2023/07/21 09:08:24;;;;;;;;;;;17.90;99.90;;;;;;5141052;27;19950;-62
2023/07/21 09:10:50;;;;;;;;;;;18.00;99.90;;;;;;5140594;27;19908;-62
2023/07/21 09:13:16;;;;;;;;;;;18.20;99.90;;;;;;5141024;27;19921;-62
2023/07/21 09:15:55;;;;;;;;;;;18.30;99.90;;;;;;5141383;27;19907;-62
2023/07/21 09:18:25;;;;;;;;;;;18.30;99.90;;;;;;5140878;27;19923;-62
2023/07/21 09:20:51;;;;;;;;;;;18.40;99.90;;;;;;5140133;27;19907;-62
2023/07/21 09:23:20;;;;;;;;;;;18.60;99.90;;;;;;5140188;27;19911;-62
2023/07/21 09:25:56;;;;;;;;;;;18.70;99.90;;;;;;5140487;27;19911;-62
2023/07/21 09:28:36;;;;;;;;;;;18.90;99.90;;;;;;5140836;27;19959;-62
2023/07/21 09:31:02;;;;;;;;;;;18.90;99.90;;;;;;5140600;27;19908;-62
2023/07/21 09:33:27;;;;;;;;;;;18.90;99.90;;;;;;5140289;27;19998;-62
2023/07/21 09:36:04;;;;;;;;;;;18.90;99.90;;;;;;5140310;27;20305;-62
2023/07/21 09:38:29;;;;;;;;;;;18.90;99.90;;;;;;5140650;27;19914;-62
2023/07/21 09:40:59;;;;;;;;;;;19.00;99.90;;;;;;5140360;27;19907;-62
2023/07/21 09:43:25;;;;;;;;;;;19.10;99.90;;;;;;5140426;27;19911;-62
2023/07/21 09:45:53;;;;;;;;;;;19.10;99.90;;;;;;5140240;27;19919;-62
2023/07/21 09:48:19;;;;;;;;;;;19.30;99.90;;;;;;5140192;27;19908;-62
2023/07/21 09:50:45;;;;;;;;;;;19.60;99.90;;;;;;5140657;27;19908;-62
2023/07/21 09:53:13;;;;;;;;;;;19.80;99.90;;;;;;5140035;27;20655;-61
2023/07/21 09:55:40;;;;;;;;;;;20.00;99.90;;;;;;5139750;27;20289;-66
2023/07/21 09:58:09;;;;;;;;;;;20.20;99.90;;;;;;5139966;27;19907;-66
2023/07/21 10:00:39;;;;;;;;;;;20.40;99.90;;;;;;5140356;27;19908;-66
2023/07/21 10:03:07;;;;;;;;;;;20.30;99.90;;;;;;5139704;27;19908;-66
2023/07/21 10:05:34;;;;;;;;;;;20.40;99.90;;;;;;5140054;27;19933;-66
2023/07/21 10:08:02;;;;;;;;;;;20.70;99.90;;;;;;5140272;27;19949;-66
2023/07/21 10:10:28;;;;;;;;;;;20.90;99.90;;;;;;5140049;27;19908;-66
2023/07/21 10:12:54;;;;;;;;;;;21.40;99.90;;;;;;5139672;27;19914;-66
2023/07/21 10:15:30;;;;;;;;;;;22.30;99.90;;;;;;5139691;27;19911;-66
2023/07/21 10:17:59;;;;;;;;;;;23.10;99.90;;;;;;5139679;27;20370;-66
2023/07/21 10:20:44;;;;;;;;;;;24.00;99.90;;;;;;5139425;27;19930;-66
2023/07/21 10:23:11;;;;;;;;;;;24.80;99.90;;;;;;5139583;27;19907;-66
2023/07/21 10:25:52;;;;;;;;;;;25.30;78.00;;;;;;5139720;27;19921;-66
2023/07/21 10:28:24;;;;;;;;;;;25.60;78.90;;;;;;5139492;27;19911;-66
2023/07/21 10:30:50;;;;;;;;;;;26.10;97.40;;;;;;5139802;27;19951;-64
2023/07/21 10:33:18;;;;;;;;;;;27.40;88.10;;;;;;5138892;27;19995;-65
2023/07/21 10:35:43;;;;;;;;;;;27.90;82.80;;;;;;5139234;27;19907;-65
2023/07/21 10:38:15;;;;;;;;;;;28.80;67.70;;;;;;5139532;27;19956;-66
2023/07/21 10:40:41;;;;;;;;;;;29.40;76.10;;;;;;5139533;27;19911;-66
2023/07/21 10:43:07;;;;;;;;;;;29.40;66.30;;;;;;5139373;27;19911;-66
2023/07/21 10:45:32;;;;;;;;;;;27.90;64.30;;;;;;5139486;27;19918;-66
2023/07/21 10:48:13;;;;;;;;;;;27.40;60.50;;;;;;5138873;27;19949;-66
2023/07/21 10:50:47;;;;;;;;;;;27.10;62.00;;;;;;5138950;27;19914;-66
2023/07/21 10:53:13;;;;;;;;;;;27.70;68.70;;;;;;5138636;27;19965;-66
2023/07/21 10:55:38;;;;;;;;;;;28.60;64.90;;;;;;5138868;27;19908;-66
2023/07/21 10:58:05;;;;;;;;;;;28.90;62.00;;;;;;5139282;27;20385;-66
2023/07/21 11:00:42;;;;;;;;;;;29.40;62.30;;;;;;5138784;27;19995;-66
2023/07/21 11:03:08;;;;;;;;;;;30.90;62.00;;;;;;5138981;27;19951;-66
2023/07/21 11:05:35;;;;;;;;;;;30.40;56.20;;;;;;5138935;27;19965;-66
2023/07/21 11:08:01;;;;;;;;;;;30.10;60.40;;;;;;5138747;27;20378;-66
2023/07/21 11:10:36;;;;;;;;;;;31.20;50.40;;;;;;5138812;27;19912;-66
2023/07/21 11:13:02;;;;;;;;;;;31.20;49.30;;;;;;5138367;28;20370;-66
2023/07/21 11:15:28;;;;;;;;;;;31.40;55.20;;;;;;5138553;28;19930;-66
2023/07/21 11:18:04;;;;;;;;;;;31.30;50.30;;;;;;5139035;28;19914;-66
2023/07/21 11:20:30;;;;;;;;;;;29.40;47.00;;;;;;5138566;28;19999;-66
2023/07/21 11:22:56;;;;;;;;;;;28.00;51.40;;;;;;5138553;28;19994;-66
2023/07/21 11:25:22;;;;;;;;;;;27.10;56.20;;;;;;5138747;28;19908;-66
2023/07/21 11:27:48;;;;;;;;;;;26.50;56.60;;;;;;5138431;28;19918;-66
2023/07/21 11:30:18;;;;;;;;;;;26.90;59.50;;;;;;5138555;28;20465;-66
2023/07/21 11:32:44;;;;;;;;;;;26.90;55.80;;;;;;5138502;28;19916;-66
2023/07/21 11:35:09;;;;;;;;;;;27.20;56.90;;;;;;5138734;28;19907;-66
2023/07/21 11:37:36;;;;;;;;;;;27.30;52.50;;;;;;5138666;28;19907;-66
2023/07/21 11:40:08;;;;;;;;;;;26.50;56.10;;;;;;5138685;28;19945;-66
2023/07/21 11:42:44;;;;;;;;;;;26.60;60.50;;;;;;5138726;28;19907;-65
2023/07/21 11:45:28;;;;;;;;;;;27.10;53.10;;;;;;5139972;27;19935;-65
2023/07/21 11:47:54;;;;;;;;;;;27.00;51.80;;;;;;5142865;27;19983;-65
2023/07/21 11:50:19;;;;;;;;;;;26.00;53.30;;;;;;5142555;27;19914;-65
2023/07/21 11:52:47;;;;;;;;;;;26.40;56.00;;;;;;5142358;27;19957;-66
2023/07/21 11:55:13;;;;;;;;;;;26.20;56.70;;;;;;5142400;27;19915;-65
2023/07/21 11:57:38;;;;;;;;;;;24.90;62.40;;;;;;5142275;27;19907;-65
2023/07/21 12:00:11;;;;;;;;;;;24.80;66.90;;;;;;5142728;27;19960;-65
2023/07/21 12:02:39;;;;;;;;;;;25.30;63.30;;;;;;5142155;27;19918;-66
2023/07/21 12:05:05;;;;;;;;;;;25.60;65.40;;;;;;5142340;27;20262;-65
2023/07/21 12:07:31;;;;;;;;;;;26.30;63.10;;;;;;5124182;27;19911;-65
2023/07/21 12:10:00;;;;;;;;;;;26.40;63.00;;;;;;5142130;27;19928;-65
2023/07/21 12:12:26;;;;;;;;;;;25.70;63.60;;;;;;5142115;27;20346;-65
2023/07/21 12:14:52;;;;;;;;;;;25.00;65.00;;;;;;5142342;27;19914;-65
2023/07/21 12:17:18;;;;;;;;;;;23.70;70.40;;;;;;5141887;27;19914;-65
2023/07/21 12:19:44;;;;;;;;;;;23.20;73.60;;;;;;5141793;27;19923;-65
2023/07/21 12:22:10;;;;;;;;;;;22.60;78.10;;;;;;5142063;27;19912;-66
2023/07/21 12:24:36;;;;;;;;;;;22.00;89.70;;;;;;5141723;27;19908;-66
2023/07/21 12:27:02;;;;;;;;;;;21.70;94.10;;;;;;5141737;27;19912;-66
2023/07/21 12:29:27;;;;;;;;;;;22.50;92.30;;;;;;5142232;27;20365;-66
2023/07/21 12:31:53;;;;;;;;;;;23.00;83.70;;;;;;5123184;27;19914;-66
2023/07/21 12:34:19;;;;;;;;;;;23.50;82.40;;;;;;5142067;27;19914;-66
2023/07/21 12:36:44;;;;;;;;;;;23.20;81.50;;;;;;5142116;27;19931;-66
2023/07/21 12:39:10;;;;;;;;;;;23.40;75.60;;;;;;5141909;27;19955;-66
2023/07/21 12:41:36;;;;;;;;;;;23.00;77.60;;;;;;5141801;27;19945;-66
2023/07/21 12:44:02;;;;;;;;;;;23.10;80.60;;;;;;5141773;27;19929;-66
2023/07/21 12:46:28;;;;;;;;;;;23.20;81.70;;;;;;5141325;27;20371;-66
2023/07/21 12:48:54;;;;;;;;;;;23.00;82.40;;;;;;5141591;27;20000;-66
2023/07/21 12:51:20;;;;;;;;;;;22.90;79.40;;;;;;5141313;27;19916;-65
2023/07/21 12:53:45;;;;;;;;;;;22.40;84.20;;;;;;5141097;27;19914;-65
2023/07/21 12:56:11;;;;;;;;;;;22.00;85.70;;;;;;5140986;27;19930;-65
2023/07/21 12:58:36;;;;;;;;;;;22.00;85.30;;;;;;5141598;27;20377;-66
2023/07/21 13:01:02;;;;;;;;;;;21.90;85.00;;;;;;5141854;27;19907;-65
2023/07/21 13:03:28;;;;;;;;;;;21.60;88.00;;;;;;5141179;27;19907;-66
2023/07/21 13:05:53;;;;;;;;;;;21.60;87.40;;;;;;5141003;27;20006;-65
2023/07/21 13:08:19;;;;;;;;;;;22.10;88.80;;;;;;5141149;27;19907;-66
2023/07/21 13:10:45;;;;;;;;;;;22.40;86.30;;;;;;5140836;27;20039;-66
2023/07/21 13:13:11;;;;;;;;;;;23.00;82.40;;;;;;5140826;27;19908;-66
2023/07/21 13:15:37;;;;;;;;;;;23.30;81.10;;;;;;5141114;27;20100;-67
2023/07/21 13:18:04;;;;;;;;;;;23.20;81.20;;;;;;5140196;27;19912;-66
2023/07/21 13:20:29;;;;;;;;;;;22.90;83.10;;;;;;5140913;27;19915;-66
2023/07/21 13:22:55;;;;;;;;;;;22.60;84.90;;;;;;5140763;27;19990;-66
2023/07/21 13:25:20;;;;;;;;;;;22.80;85.10;;;;;;5140956;27;19907;-66
2023/07/21 13:27:47;;;;;;;;;;;22.60;87.90;;;;;;5140592;27;20010;-66
2023/07/21 13:30:12;;;;;;;;;;;22.50;84.70;;;;;;5140498;27;19915;-66
2023/07/21 13:32:38;;;;;;;;;;;22.10;87.30;;;;;;5140382;27;19907;-66
2023/07/21 13:35:04;;;;;;;;;;;22.10;90.30;;;;;;5140473;27;19908;-66
2023/07/21 13:37:29;;;;;;;;;;;21.80;88.80;;;;;;5140243;27;19907;-66
2023/07/21 13:39:55;;;;;;;;;;;21.80;87.50;;;;;;5140321;27;19907;-66
2023/07/21 13:42:22;;;;;;;;;;;21.60;90.20;;;;;;5121838;27;19914;-66
2023/07/21 13:44:48;;;;;;;;;;;21.50;89.60;;;;;;5140395;27;19914;-66
2023/07/21 13:47:14;;;;;;;;;;;21.20;91.80;;;;;;5139777;27;20394;-66
2023/07/21 13:49:40;;;;;;;;;;;21.40;91.30;;;;;;5140050;27;19989;-66
2023/07/21 13:52:06;;;;;;;;;;;21.80;94.10;;;;;;5139966;27;19977;-66
2023/07/21 13:54:32;;;;;;;;;;;22.30;91.50;;;;;;5137589;27;19935;-66
2023/07/21 13:57:05;;;;;;;;;;;22.70;88.50;;;;;;5121609;27;19995;-66
2023/07/21 13:59:30;;;;;;;;;;;22.80;85.70;;;;;;5128803;27;19911;-66
2023/07/21 14:01:56;;;;;;;;;;;22.60;88.90;;;;;;5127249;27;20354;-66
2023/07/21 14:04:21;;;;;;;;;;;22.40;87.90;;;;;;5126915;27;19951;-66
2023/07/21 14:06:47;;;;;;;;;;;22.10;87.50;;;;;;5131937;27;19941;-66
2023/07/21 14:09:14;;;;;;;;;;;21.90;88.00;;;;;;5136074;27;19933;-66
2023/07/21 14:11:40;;;;;;;;;;;21.70;92.20;;;;;;5137607;27;20004;-66
2023/07/21 14:14:09;;;;;;;;;;;21.70;88.70;;;;;;5135691;27;19911;-66